sensor_id;sensor_type;location;lat;lon;timestamp;P1;durP1;ratioP1;P2;durP2;ratioP2
26822;SDS011;14852;51.910;8.878;2023-04-15T00:01:24;5.53;;;3.58;;
26822;SDS011;14852;51.910;8.878;2023-04-15T00:03:51;7.18;;;3.65;;
26822;SDS011;14852;51.910;8.878;2023-04-15T00:06:18;5.50;;;4.13;;
26822;SDS011;14852;51.910;8.878;2023-04-15T00:08:47;5.43;;;4.10;;
26822;SDS011;14852;51.910;8.878;2023-04-15T00:11:14;6.72;;;4.22;;
26822;SDS011;14852;51.910;8.878;2023-04-15T00:13:41;8.07;;;3.60;;
26822;SDS011;14852;51.910;8.878;2023-04-15T00:16:07;5.88;;;3.80;;
26822;SDS011;14852;51.910;8.878;2023-04-15T00:18:34;5.63;;;3.90;;
26822;SDS011;14852;51.910;8.878;2023-04-15T00:21:01;5.43;;;3.88;;
26822;SDS011;14852;51.910;8.878;2023-04-15T00:23:28;4.30;;;3.28;;
26822;SDS011;14852;51.910;8.878;2023-04-15T00:25:54;5.40;;;3.63;;
26822;SDS011;14852;51.910;8.878;2023-04-15T00:28:20;4.85;;;3.15;;
26822;SDS011;14852;51.910;8.878;2023-04-15T00:30:46;4.53;;;3.15;;
26822;SDS011;14852;51.910;8.878;2023-04-15T00:33:12;5.88;;;3.63;;
26822;SDS011;14852;51.910;8.878;2023-04-15T00:35:40;4.57;;;3.47;;
26822;SDS011;14852;51.910;8.878;2023-04-15T00:38:07;5.45;;;3.58;;
26822;SDS011;14852;51.910;8.878;2023-04-15T00:40:32;9.63;;;3.95;;
26822;SDS011;14852;51.910;8.878;2023-04-15T00:42:59;9.13;;;5.32;;
26822;SDS011;14852;51.910;8.878;2023-04-15T00:45:25;11.25;;;5.70;;
26822;SDS011;14852;51.910;8.878;2023-04-15T00:47:52;7.95;;;5.15;;
26822;SDS011;14852;51.910;8.878;2023-04-15T00:50:18;8.40;;;5.13;;
26822;SDS011;14852;51.910;8.878;2023-04-15T00:52:44;7.47;;;5.65;;
26822;SDS011;14852;51.910;8.878;2023-04-15T00:55:09;6.93;;;5.13;;
26822;SDS011;14852;51.910;8.878;2023-04-15T00:57:35;7.25;;;4.80;;
26822;SDS011;14852;51.910;8.878;2023-04-15T01:00:02;8.23;;;4.30;;
26822;SDS011;14852;51.910;8.878;2023-04-15T01:02:32;8.00;;;4.72;;
26822;SDS011;14852;51.910;8.878;2023-04-15T01:05:00;5.80;;;4.63;;
26822;SDS011;14852;51.910;8.878;2023-04-15T01:07:28;6.07;;;4.10;;
26822;SDS011;14852;51.910;8.878;2023-04-15T01:09:54;5.35;;;3.55;;
26822;SDS011;14852;51.910;8.878;2023-04-15T01:12:20;7.03;;;4.10;;
26822;SDS011;14852;51.910;8.878;2023-04-15T01:14:48;7.82;;;4.70;;
26822;SDS011;14852;51.910;8.878;2023-04-15T01:17:14;7.88;;;4.68;;
26822;SDS011;14852;51.910;8.878;2023-04-15T01:19:40;7.00;;;5.20;;
26822;SDS011;14852;51.910;8.878;2023-04-15T01:22:06;10.38;;;5.38;;
26822;SDS011;14852;51.910;8.878;2023-04-15T01:24:32;9.68;;;5.22;;
26822;SDS011;14852;51.910;8.878;2023-04-15T01:26:59;8.88;;;4.68;;
26822;SDS011;14852;51.910;8.878;2023-04-15T01:29:26;8.80;;;4.55;;
26822;SDS011;14852;51.910;8.878;2023-04-15T01:31:53;7.03;;;4.57;;
26822;SDS011;14852;51.910;8.878;2023-04-15T01:34:20;6.95;;;4.90;;
26822;SDS011;14852;51.910;8.878;2023-04-15T01:36:46;7.55;;;5.30;;
26822;SDS011;14852;51.910;8.878;2023-04-15T01:39:13;6.88;;;4.82;;
26822;SDS011;14852;51.910;8.878;2023-04-15T01:41:39;9.98;;;5.38;;
26822;SDS011;14852;51.910;8.878;2023-04-15T01:44:06;8.13;;;5.18;;
26822;SDS011;14852;51.910;8.878;2023-04-15T01:46:32;7.70;;;4.93;;
26822;SDS011;14852;51.910;8.878;2023-04-15T01:48:58;9.70;;;5.32;;
26822;SDS011;14852;51.910;8.878;2023-04-15T01:51:24;8.32;;;4.90;;
26822;SDS011;14852;51.910;8.878;2023-04-15T01:53:51;7.28;;;4.97;;
26822;SDS011;14852;51.910;8.878;2023-04-15T01:56:17;6.28;;;5.05;;
26822;SDS011;14852;51.910;8.878;2023-04-15T01:58:43;7.38;;;4.45;;
26822;SDS011;14852;51.910;8.878;2023-04-15T02:01:09;10.52;;;5.78;;
26822;SDS011;14852;51.910;8.878;2023-04-15T02:03:35;9.60;;;4.82;;
26822;SDS011;14852;51.910;8.878;2023-04-15T02:06:02;9.23;;;6.20;;
26822;SDS011;14852;51.910;8.878;2023-04-15T02:08:28;7.85;;;4.82;;
26822;SDS011;14852;51.910;8.878;2023-04-15T02:10:54;6.97;;;4.55;;
26822;SDS011;14852;51.910;8.878;2023-04-15T02:13:20;10.45;;;6.07;;
26822;SDS011;14852;51.910;8.878;2023-04-15T02:15:48;8.52;;;4.85;;
26822;SDS011;14852;51.910;8.878;2023-04-15T02:18:17;7.80;;;4.65;;
26822;SDS011;14852;51.910;8.878;2023-04-15T02:20:43;9.55;;;4.45;;
26822;SDS011;14852;51.910;8.878;2023-04-15T02:23:09;9.13;;;5.50;;
26822;SDS011;14852;51.910;8.878;2023-04-15T02:25:35;7.43;;;5.28;;
26822;SDS011;14852;51.910;8.878;2023-04-15T02:28:04;7.63;;;4.95;;
26822;SDS011;14852;51.910;8.878;2023-04-15T02:30:30;9.10;;;4.35;;
26822;SDS011;14852;51.910;8.878;2023-04-15T02:33:00;6.85;;;5.05;;
26822;SDS011;14852;51.910;8.878;2023-04-15T02:35:27;7.32;;;4.93;;
26822;SDS011;14852;51.910;8.878;2023-04-15T02:37:53;8.13;;;5.00;;
26822;SDS011;14852;51.910;8.878;2023-04-15T02:40:19;5.88;;;4.10;;
26822;SDS011;14852;51.910;8.878;2023-04-15T02:42:45;8.25;;;4.50;;
26822;SDS011;14852;51.910;8.878;2023-04-15T02:45:14;8.63;;;4.20;;
26822;SDS011;14852;51.910;8.878;2023-04-15T02:47:41;7.82;;;5.30;;
26822;SDS011;14852;51.910;8.878;2023-04-15T02:50:09;8.45;;;5.45;;
26822;SDS011;14852;51.910;8.878;2023-04-15T02:52:38;5.65;;;3.95;;
26822;SDS011;14852;51.910;8.878;2023-04-15T02:55:06;3.97;;;3.17;;
26822;SDS011;14852;51.910;8.878;2023-04-15T02:57:33;5.68;;;4.10;;
26822;SDS011;14852;51.910;8.878;2023-04-15T03:00:04;6.53;;;4.43;;
26822;SDS011;14852;51.910;8.878;2023-04-15T03:02:35;5.90;;;4.10;;
26822;SDS011;14852;51.910;8.878;2023-04-15T03:05:03;9.57;;;4.10;;
26822;SDS011;14852;51.910;8.878;2023-04-15T03:07:32;6.90;;;4.40;;
26822;SDS011;14852;51.910;8.878;2023-04-15T03:09:59;8.23;;;4.30;;
26822;SDS011;14852;51.910;8.878;2023-04-15T03:12:25;5.05;;;3.30;;
26822;SDS011;14852;51.910;8.878;2023-04-15T03:14:55;5.85;;;3.78;;
26822;SDS011;14852;51.910;8.878;2023-04-15T03:17:27;6.70;;;4.17;;
26822;SDS011;14852;51.910;8.878;2023-04-15T03:19:53;5.85;;;4.18;;
26822;SDS011;14852;51.910;8.878;2023-04-15T03:22:20;5.88;;;4.30;;
26822;SDS011;14852;51.910;8.878;2023-04-15T03:24:46;6.70;;;6.00;;
26822;SDS011;14852;51.910;8.878;2023-04-15T03:27:12;5.93;;;5.13;;
26822;SDS011;14852;51.910;8.878;2023-04-15T03:29:38;6.97;;;5.13;;
26822;SDS011;14852;51.910;8.878;2023-04-15T03:32:04;7.18;;;4.82;;
26822;SDS011;14852;51.910;8.878;2023-04-15T03:34:32;6.88;;;5.72;;
26822;SDS011;14852;51.910;8.878;2023-04-15T03:36:58;7.55;;;5.50;;
26822;SDS011;14852;51.910;8.878;2023-04-15T03:39:24;7.10;;;6.15;;
26822;SDS011;14852;51.910;8.878;2023-04-15T03:41:49;7.35;;;6.22;;
26822;SDS011;14852;51.910;8.878;2023-04-15T03:44:15;7.50;;;6.45;;
26822;SDS011;14852;51.910;8.878;2023-04-15T03:46:41;8.30;;;6.80;;
26822;SDS011;14852;51.910;8.878;2023-04-15T03:49:07;8.77;;;7.50;;
26822;SDS011;14852;51.910;8.878;2023-04-15T03:51:32;7.68;;;6.53;;
26822;SDS011;14852;51.910;8.878;2023-04-15T03:53:58;8.57;;;6.38;;
26822;SDS011;14852;51.910;8.878;2023-04-15T03:56:24;7.80;;;6.28;;
26822;SDS011;14852;51.910;8.878;2023-04-15T03:58:50;10.60;;;7.13;;
26822;SDS011;14852;51.910;8.878;2023-04-15T04:01:16;7.28;;;6.05;;
26822;SDS011;14852;51.910;8.878;2023-04-15T04:03:41;7.88;;;6.55;;
26822;SDS011;14852;51.910;8.878;2023-04-15T04:06:07;9.10;;;7.32;;
26822;SDS011;14852;51.910;8.878;2023-04-15T04:08:33;8.05;;;6.68;;
26822;SDS011;14852;51.910;8.878;2023-04-15T04:10:59;9.10;;;5.93;;
26822;SDS011;14852;51.910;8.878;2023-04-15T04:13:25;9.13;;;6.35;;
26822;SDS011;14852;51.910;8.878;2023-04-15T04:15:51;7.95;;;5.97;;
26822;SDS011;14852;51.910;8.878;2023-04-15T04:18:16;10.07;;;6.82;;
26822;SDS011;14852;51.910;8.878;2023-04-15T04:20:42;8.38;;;6.75;;
26822;SDS011;14852;51.910;8.878;2023-04-15T04:23:08;9.60;;;6.55;;
26822;SDS011;14852;51.910;8.878;2023-04-15T04:25:34;8.02;;;6.65;;
26822;SDS011;14852;51.910;8.878;2023-04-15T04:28:00;8.38;;;6.72;;
26822;SDS011;14852;51.910;8.878;2023-04-15T04:30:26;9.18;;;7.55;;
26822;SDS011;14852;51.910;8.878;2023-04-15T04:32:51;9.43;;;6.78;;
26822;SDS011;14852;51.910;8.878;2023-04-15T04:35:17;8.00;;;6.85;;
26822;SDS011;14852;51.910;8.878;2023-04-15T04:37:43;9.02;;;7.63;;
26822;SDS011;14852;51.910;8.878;2023-04-15T04:40:09;10.80;;;7.05;;
26822;SDS011;14852;51.910;8.878;2023-04-15T04:42:35;9.15;;;7.18;;
26822;SDS011;14852;51.910;8.878;2023-04-15T04:45:01;8.57;;;6.95;;
26822;SDS011;14852;51.910;8.878;2023-04-15T04:47:27;8.13;;;6.90;;
26822;SDS011;14852;51.910;8.878;2023-04-15T04:49:54;8.23;;;7.28;;
26822;SDS011;14852;51.910;8.878;2023-04-15T04:52:19;9.68;;;7.85;;
26822;SDS011;14852;51.910;8.878;2023-04-15T04:54:45;8.60;;;6.22;;
26822;SDS011;14852;51.910;8.878;2023-04-15T04:57:11;8.02;;;6.80;;
26822;SDS011;14852;51.910;8.878;2023-04-15T04:59:37;8.50;;;6.88;;
26822;SDS011;14852;51.910;8.878;2023-04-15T05:02:03;8.52;;;6.75;;
26822;SDS011;14852;51.910;8.878;2023-04-15T05:04:29;7.97;;;6.60;;
26822;SDS011;14852;51.910;8.878;2023-04-15T05:06:56;9.20;;;8.27;;
26822;SDS011;14852;51.910;8.878;2023-04-15T05:09:23;9.32;;;7.95;;
26822;SDS011;14852;51.910;8.878;2023-04-15T05:11:48;10.02;;;7.85;;
26822;SDS011;14852;51.910;8.878;2023-04-15T05:14:14;9.27;;;7.43;;
26822;SDS011;14852;51.910;8.878;2023-04-15T05:16:40;9.85;;;7.68;;
26822;SDS011;14852;51.910;8.878;2023-04-15T05:19:06;8.90;;;7.47;;
26822;SDS011;14852;51.910;8.878;2023-04-15T05:21:32;9.35;;;7.82;;
26822;SDS011;14852;51.910;8.878;2023-04-15T05:23:57;9.52;;;8.52;;
26822;SDS011;14852;51.910;8.878;2023-04-15T05:26:23;9.02;;;7.65;;
26822;SDS011;14852;51.910;8.878;2023-04-15T05:28:49;9.25;;;7.55;;
26822;SDS011;14852;51.910;8.878;2023-04-15T05:31:15;10.80;;;8.43;;
26822;SDS011;14852;51.910;8.878;2023-04-15T05:33:41;10.77;;;8.63;;
26822;SDS011;14852;51.910;8.878;2023-04-15T05:36:07;10.05;;;7.72;;
26822;SDS011;14852;51.910;8.878;2023-04-15T05:38:33;11.02;;;7.95;;
26822;SDS011;14852;51.910;8.878;2023-04-15T05:40:59;10.88;;;8.07;;
26822;SDS011;14852;51.910;8.878;2023-04-15T05:43:25;8.77;;;7.85;;
26822;SDS011;14852;51.910;8.878;2023-04-15T05:45:51;9.75;;;8.15;;
26822;SDS011;14852;51.910;8.878;2023-04-15T05:48:17;10.82;;;8.27;;
26822;SDS011;14852;51.910;8.878;2023-04-15T05:50:42;9.88;;;8.05;;
26822;SDS011;14852;51.910;8.878;2023-04-15T05:53:08;12.63;;;7.68;;
26822;SDS011;14852;51.910;8.878;2023-04-15T05:55:34;11.00;;;8.32;;
26822;SDS011;14852;51.910;8.878;2023-04-15T05:58:00;11.93;;;8.80;;
26822;SDS011;14852;51.910;8.878;2023-04-15T06:00:26;11.48;;;8.10;;
26822;SDS011;14852;51.910;8.878;2023-04-15T06:02:51;9.15;;;7.95;;
26822;SDS011;14852;51.910;8.878;2023-04-15T06:05:17;10.50;;;8.73;;
26822;SDS011;14852;51.910;8.878;2023-04-15T06:07:43;10.50;;;7.85;;
26822;SDS011;14852;51.910;8.878;2023-04-15T06:10:09;12.95;;;8.95;;
26822;SDS011;14852;51.910;8.878;2023-04-15T06:12:35;11.02;;;8.15;;
26822;SDS011;14852;51.910;8.878;2023-04-15T06:15:01;9.20;;;7.30;;
26822;SDS011;14852;51.910;8.878;2023-04-15T06:17:27;10.15;;;8.32;;
26822;SDS011;14852;51.910;8.878;2023-04-15T06:19:53;11.95;;;8.82;;
26822;SDS011;14852;51.910;8.878;2023-04-15T06:22:22;10.70;;;8.38;;
26822;SDS011;14852;51.910;8.878;2023-04-15T06:24:48;9.75;;;7.95;;
26822;SDS011;14852;51.910;8.878;2023-04-15T06:27:15;12.02;;;8.80;;
26822;SDS011;14852;51.910;8.878;2023-04-15T06:29:41;11.95;;;9.15;;
26822;SDS011;14852;51.910;8.878;2023-04-15T06:32:07;12.45;;;9.05;;
26822;SDS011;14852;51.910;8.878;2023-04-15T06:34:33;11.30;;;9.13;;
26822;SDS011;14852;51.910;8.878;2023-04-15T06:36:59;11.43;;;9.30;;
26822;SDS011;14852;51.910;8.878;2023-04-15T06:39:25;14.05;;;9.07;;
26822;SDS011;14852;51.910;8.878;2023-04-15T06:41:51;12.23;;;8.60;;
26822;SDS011;14852;51.910;8.878;2023-04-15T06:44:19;13.45;;;9.77;;
26822;SDS011;14852;51.910;8.878;2023-04-15T06:46:45;12.43;;;10.25;;
26822;SDS011;14852;51.910;8.878;2023-04-15T06:49:11;12.27;;;9.10;;
26822;SDS011;14852;51.910;8.878;2023-04-15T06:51:36;11.50;;;10.13;;
26822;SDS011;14852;51.910;8.878;2023-04-15T06:54:03;11.75;;;9.73;;
26822;SDS011;14852;51.910;8.878;2023-04-15T06:56:33;10.55;;;8.40;;
26822;SDS011;14852;51.910;8.878;2023-04-15T06:58:59;10.90;;;8.48;;
26822;SDS011;14852;51.910;8.878;2023-04-15T07:01:24;11.63;;;9.98;;
26822;SDS011;14852;51.910;8.878;2023-04-15T07:03:50;10.02;;;8.30;;
26822;SDS011;14852;51.910;8.878;2023-04-15T07:06:16;12.35;;;8.68;;
26822;SDS011;14852;51.910;8.878;2023-04-15T07:08:42;11.98;;;8.73;;
26822;SDS011;14852;51.910;8.878;2023-04-15T07:11:07;11.10;;;9.20;;
26822;SDS011;14852;51.910;8.878;2023-04-15T07:13:33;11.90;;;9.07;;
26822;SDS011;14852;51.910;8.878;2023-04-15T07:15:59;12.52;;;8.20;;
26822;SDS011;14852;51.910;8.878;2023-04-15T07:18:25;12.35;;;9.88;;
26822;SDS011;14852;51.910;8.878;2023-04-15T07:20:51;11.57;;;9.32;;
26822;SDS011;14852;51.910;8.878;2023-04-15T07:23:16;11.05;;;8.88;;
26822;SDS011;14852;51.910;8.878;2023-04-15T07:25:42;12.57;;;9.75;;
26822;SDS011;14852;51.910;8.878;2023-04-15T07:28:08;11.55;;;9.70;;
26822;SDS011;14852;51.910;8.878;2023-04-15T07:30:34;18.05;;;9.40;;
26822;SDS011;14852;51.910;8.878;2023-04-15T07:33:00;10.60;;;8.57;;
26822;SDS011;14852;51.910;8.878;2023-04-15T07:35:26;11.57;;;9.80;;
26822;SDS011;14852;51.910;8.878;2023-04-15T07:37:53;11.57;;;8.52;;
26822;SDS011;14852;51.910;8.878;2023-04-15T07:40:19;10.60;;;8.00;;
26822;SDS011;14852;51.910;8.878;2023-04-15T07:42:46;8.43;;;7.20;;
26822;SDS011;14852;51.910;8.878;2023-04-15T07:45:13;9.13;;;7.03;;
26822;SDS011;14852;51.910;8.878;2023-04-15T07:47:40;8.35;;;6.60;;
26822;SDS011;14852;51.910;8.878;2023-04-15T07:50:06;9.00;;;7.15;;
26822;SDS011;14852;51.910;8.878;2023-04-15T07:52:35;8.18;;;7.07;;
26822;SDS011;14852;51.910;8.878;2023-04-15T07:55:06;10.38;;;6.80;;
26822;SDS011;14852;51.910;8.878;2023-04-15T07:57:33;8.63;;;6.60;;
26822;SDS011;14852;51.910;8.878;2023-04-15T07:59:59;8.23;;;6.38;;
26822;SDS011;14852;51.910;8.878;2023-04-15T08:02:25;8.05;;;6.78;;
26822;SDS011;14852;51.910;8.878;2023-04-15T08:04:51;8.23;;;7.35;;
26822;SDS011;14852;51.910;8.878;2023-04-15T08:07:18;9.73;;;7.78;;
26822;SDS011;14852;51.910;8.878;2023-04-15T08:09:43;9.23;;;6.85;;
26822;SDS011;14852;51.910;8.878;2023-04-15T08:12:10;7.38;;;6.15;;
26822;SDS011;14852;51.910;8.878;2023-04-15T08:14:37;7.53;;;6.53;;
26822;SDS011;14852;51.910;8.878;2023-04-15T08:17:03;7.43;;;6.63;;
26822;SDS011;14852;51.910;8.878;2023-04-15T08:19:29;10.18;;;8.00;;
26822;SDS011;14852;51.910;8.878;2023-04-15T08:21:55;6.80;;;6.10;;
26822;SDS011;14852;51.910;8.878;2023-04-15T08:24:21;7.40;;;6.18;;
26822;SDS011;14852;51.910;8.878;2023-04-15T08:26:50;8.02;;;6.55;;
26822;SDS011;14852;51.910;8.878;2023-04-15T08:29:16;6.90;;;5.65;;
26822;SDS011;14852;51.910;8.878;2023-04-15T08:31:45;6.22;;;5.40;;
26822;SDS011;14852;51.910;8.878;2023-04-15T08:34:11;7.28;;;6.13;;
26822;SDS011;14852;51.910;8.878;2023-04-15T08:36:37;7.07;;;5.63;;
26822;SDS011;14852;51.910;8.878;2023-04-15T08:39:03;7.88;;;6.43;;
26822;SDS011;14852;51.910;8.878;2023-04-15T08:41:39;7.43;;;5.80;;
26822;SDS011;14852;51.910;8.878;2023-04-15T08:44:27;8.88;;;6.53;;
26822;SDS011;14852;51.910;8.878;2023-04-15T08:46:59;7.70;;;5.57;;
26822;SDS011;14852;51.910;8.878;2023-04-15T08:49:26;6.38;;;5.30;;
26822;SDS011;14852;51.910;8.878;2023-04-15T08:51:54;7.43;;;5.50;;
26822;SDS011;14852;51.910;8.878;2023-04-15T08:54:23;8.07;;;6.05;;
26822;SDS011;14852;51.910;8.878;2023-04-15T08:56:49;6.90;;;5.63;;
26822;SDS011;14852;51.910;8.878;2023-04-15T08:59:16;7.32;;;5.68;;
26822;SDS011;14852;51.910;8.878;2023-04-15T09:01:43;7.68;;;5.95;;
26822;SDS011;14852;51.910;8.878;2023-04-15T09:04:09;7.45;;;6.10;;
26822;SDS011;14852;51.910;8.878;2023-04-15T09:06:36;8.52;;;6.22;;
26822;SDS011;14852;51.910;8.878;2023-04-15T09:09:04;6.50;;;4.95;;
26822;SDS011;14852;51.910;8.878;2023-04-15T09:11:30;7.43;;;5.32;;
26822;SDS011;14852;51.910;8.878;2023-04-15T09:13:56;6.07;;;4.70;;
26822;SDS011;14852;51.910;8.878;2023-04-15T09:16:22;6.57;;;5.38;;
26822;SDS011;14852;51.910;8.878;2023-04-15T09:18:48;6.95;;;5.18;;
26822;SDS011;14852;51.910;8.878;2023-04-15T09:21:15;5.95;;;4.70;;
26822;SDS011;14852;51.910;8.878;2023-04-15T09:23:57;6.47;;;4.70;;
26822;SDS011;14852;51.910;8.878;2023-04-15T09:29:03;6.75;;;4.95;;
26822;SDS011;14852;51.910;8.878;2023-04-15T09:31:33;5.82;;;4.78;;
26822;SDS011;14852;51.910;8.878;2023-04-15T09:34:00;6.75;;;4.55;;
26822;SDS011;14852;51.910;8.878;2023-04-15T09:36:26;6.38;;;5.20;;
26822;SDS011;14852;51.910;8.878;2023-04-15T09:38:56;5.57;;;4.57;;
26822;SDS011;14852;51.910;8.878;2023-04-15T09:41:24;6.53;;;4.97;;
26822;SDS011;14852;51.910;8.878;2023-04-15T09:43:52;5.30;;;4.70;;
26822;SDS011;14852;51.910;8.878;2023-04-15T09:46:18;4.85;;;4.05;;
26822;SDS011;14852;51.910;8.878;2023-04-15T09:48:44;6.85;;;5.20;;
26822;SDS011;14852;51.910;8.878;2023-04-15T09:51:10;6.93;;;5.25;;
26822;SDS011;14852;51.910;8.878;2023-04-15T09:53:35;5.97;;;4.47;;
26822;SDS011;14852;51.910;8.878;2023-04-15T09:56:02;4.53;;;3.80;;
26822;SDS011;14852;51.910;8.878;2023-04-15T09:58:32;5.20;;;4.70;;
26822;SDS011;14852;51.910;8.878;2023-04-15T10:01:01;5.93;;;4.20;;
26822;SDS011;14852;51.910;8.878;2023-04-15T10:03:30;6.85;;;5.07;;
26822;SDS011;14852;51.910;8.878;2023-04-15T10:05:59;5.60;;;4.55;;
26822;SDS011;14852;51.910;8.878;2023-04-15T10:08:30;4.50;;;3.70;;
26822;SDS011;14852;51.910;8.878;2023-04-15T10:10:57;5.35;;;4.60;;
26822;SDS011;14852;51.910;8.878;2023-04-15T10:13:26;5.35;;;4.22;;
26822;SDS011;14852;51.910;8.878;2023-04-15T10:16:09;4.72;;;4.05;;
26822;SDS011;14852;51.910;8.878;2023-04-15T10:18:39;5.93;;;4.22;;
26822;SDS011;14852;51.910;8.878;2023-04-15T10:21:09;5.40;;;3.90;;
26822;SDS011;14852;51.910;8.878;2023-04-15T10:23:35;6.13;;;4.80;;
26822;SDS011;14852;51.910;8.878;2023-04-15T10:26:03;5.20;;;4.22;;
26822;SDS011;14852;51.910;8.878;2023-04-15T10:28:30;4.68;;;3.58;;
26822;SDS011;14852;51.910;8.878;2023-04-15T10:30:56;5.28;;;4.53;;
26822;SDS011;14852;51.910;8.878;2023-04-15T10:33:23;5.20;;;3.65;;
26822;SDS011;14852;51.910;8.878;2023-04-15T10:35:51;5.90;;;4.18;;
26822;SDS011;14852;51.910;8.878;2023-04-15T10:38:37;3.90;;;3.50;;
26822;SDS011;14852;51.910;8.878;2023-04-15T10:41:20;4.95;;;3.65;;
26822;SDS011;14852;51.910;8.878;2023-04-15T10:43:55;4.95;;;3.90;;
26822;SDS011;14852;51.910;8.878;2023-04-15T10:46:42;5.28;;;3.60;;
26822;SDS011;14852;51.910;8.878;2023-04-15T10:49:13;3.83;;;3.38;;
26822;SDS011;14852;51.910;8.878;2023-04-15T10:51:52;4.72;;;4.15;;
26822;SDS011;14852;51.910;8.878;2023-04-15T10:57:05;4.53;;;3.58;;
26822;SDS011;14852;51.910;8.878;2023-04-15T11:05:51;4.65;;;4.00;;
26822;SDS011;14852;51.910;8.878;2023-04-15T11:08:18;4.97;;;4.15;;
26822;SDS011;14852;51.910;8.878;2023-04-15T11:15:42;5.35;;;4.10;;
26822;SDS011;14852;51.910;8.878;2023-04-15T11:18:13;4.13;;;3.58;;
26822;SDS011;14852;51.910;8.878;2023-04-15T11:20:48;4.60;;;3.42;;
26822;SDS011;14852;51.910;8.878;2023-04-15T11:23:31;4.32;;;3.70;;
26822;SDS011;14852;51.910;8.878;2023-04-15T11:26:02;4.53;;;3.60;;
26822;SDS011;14852;51.910;8.878;2023-04-15T11:28:33;3.90;;;3.50;;
26822;SDS011;14852;51.910;8.878;2023-04-15T11:31:06;3.90;;;3.53;;
26822;SDS011;14852;51.910;8.878;2023-04-15T11:33:34;4.85;;;4.15;;
26822;SDS011;14852;51.910;8.878;2023-04-15T11:36:00;6.32;;;3.90;;
26822;SDS011;14852;51.910;8.878;2023-04-15T11:38:27;5.55;;;4.35;;
26822;SDS011;14852;51.910;8.878;2023-04-15T11:40:53;4.45;;;3.80;;
26822;SDS011;14852;51.910;8.878;2023-04-15T11:43:20;4.43;;;3.70;;
26822;SDS011;14852;51.910;8.878;2023-04-15T11:48:24;4.97;;;4.03;;
26822;SDS011;14852;51.910;8.878;2023-04-15T11:50:56;4.75;;;4.25;;
26822;SDS011;14852;51.910;8.878;2023-04-15T11:53:37;5.13;;;3.92;;
26822;SDS011;14852;51.910;8.878;2023-04-15T11:56:22;4.50;;;3.90;;
26822;SDS011;14852;51.910;8.878;2023-04-15T11:58:56;4.28;;;3.45;;
26822;SDS011;14852;51.910;8.878;2023-04-15T12:01:57;4.85;;;4.20;;
26822;SDS011;14852;51.910;8.878;2023-04-15T12:04:17;3.97;;;3.30;;
26822;SDS011;14852;51.910;8.878;2023-04-15T12:06:44;5.32;;;4.28;;
26822;SDS011;14852;51.910;8.878;2023-04-15T12:09:14;4.45;;;3.55;;
26822;SDS011;14852;51.910;8.878;2023-04-15T12:11:50;6.00;;;4.32;;
26822;SDS011;14852;51.910;8.878;2023-04-15T12:14:23;3.90;;;3.50;;
26822;SDS011;14852;51.910;8.878;2023-04-15T12:16:53;4.18;;;3.75;;
26822;SDS011;14852;51.910;8.878;2023-04-15T12:19:24;3.88;;;3.47;;
26822;SDS011;14852;51.910;8.878;2023-04-15T12:21:56;4.20;;;3.58;;
26822;SDS011;14852;51.910;8.878;2023-04-15T12:24:34;4.35;;;3.70;;
26822;SDS011;14852;51.910;8.878;2023-04-15T12:27:11;3.80;;;3.40;;
26822;SDS011;14852;51.910;8.878;2023-04-15T12:29:38;3.83;;;3.20;;
26822;SDS011;14852;51.910;8.878;2023-04-15T12:34:39;3.83;;;3.42;;
26822;SDS011;14852;51.910;8.878;2023-04-15T12:37:14;3.90;;;3.20;;
26822;SDS011;14852;51.910;8.878;2023-04-15T12:39:41;5.18;;;3.58;;
26822;SDS011;14852;51.910;8.878;2023-04-15T12:42:08;5.95;;;4.10;;
26822;SDS011;14852;51.910;8.878;2023-04-15T12:44:35;5.38;;;3.80;;
26822;SDS011;14852;51.910;8.878;2023-04-15T12:47:02;4.75;;;3.72;;
26822;SDS011;14852;51.910;8.878;2023-04-15T12:49:28;5.50;;;3.65;;
26822;SDS011;14852;51.910;8.878;2023-04-15T12:51:55;6.50;;;4.00;;
26822;SDS011;14852;51.910;8.878;2023-04-15T12:54:26;4.20;;;3.08;;
26822;SDS011;14852;51.910;8.878;2023-04-15T12:56:53;5.28;;;3.83;;
26822;SDS011;14852;51.910;8.878;2023-04-15T12:59:20;5.93;;;4.50;;
26822;SDS011;14852;51.910;8.878;2023-04-15T13:01:47;4.50;;;3.20;;
26822;SDS011;14852;51.910;8.878;2023-04-15T13:04:14;4.25;;;3.25;;
26822;SDS011;14852;51.910;8.878;2023-04-15T13:06:40;6.55;;;4.10;;
26822;SDS011;14852;51.910;8.878;2023-04-15T13:09:06;4.50;;;3.80;;
26822;SDS011;14852;51.910;8.878;2023-04-15T13:11:32;4.43;;;3.67;;
26822;SDS011;14852;51.910;8.878;2023-04-15T13:14:03;4.85;;;3.95;;
26822;SDS011;14852;51.910;8.878;2023-04-15T13:16:30;3.83;;;3.35;;
26822;SDS011;14852;51.910;8.878;2023-04-15T13:19:00;4.22;;;3.58;;
26822;SDS011;14852;51.910;8.878;2023-04-15T13:21:27;4.80;;;4.25;;
26822;SDS011;14852;51.910;8.878;2023-04-15T13:23:56;4.07;;;3.40;;
26822;SDS011;14852;51.910;8.878;2023-04-15T13:26:21;5.03;;;4.53;;
26822;SDS011;14852;51.910;8.878;2023-04-15T13:28:47;5.72;;;3.92;;
26822;SDS011;14852;51.910;8.878;2023-04-15T13:31:13;4.65;;;3.83;;
26822;SDS011;14852;51.910;8.878;2023-04-15T13:33:39;4.07;;;3.67;;
26822;SDS011;14852;51.910;8.878;2023-04-15T13:36:05;4.05;;;3.65;;
26822;SDS011;14852;51.910;8.878;2023-04-15T13:38:32;5.10;;;4.07;;
26822;SDS011;14852;51.910;8.878;2023-04-15T13:40:58;5.28;;;4.70;;
26822;SDS011;14852;51.910;8.878;2023-04-15T13:43:23;5.90;;;4.88;;
26822;SDS011;14852;51.910;8.878;2023-04-15T13:45:50;6.70;;;5.20;;
26822;SDS011;14852;51.910;8.878;2023-04-15T13:48:16;4.63;;;4.13;;
26822;SDS011;14852;51.910;8.878;2023-04-15T13:50:41;6.93;;;4.65;;
26822;SDS011;14852;51.910;8.878;2023-04-15T13:53:09;5.40;;;4.82;;
26822;SDS011;14852;51.910;8.878;2023-04-15T13:55:36;4.75;;;4.20;;
26822;SDS011;14852;51.910;8.878;2023-04-15T13:58:05;6.38;;;4.47;;
26822;SDS011;14852;51.910;8.878;2023-04-15T14:00:35;5.13;;;4.50;;
26822;SDS011;14852;51.910;8.878;2023-04-15T14:03:01;4.88;;;4.22;;
26822;SDS011;14852;51.910;8.878;2023-04-15T14:05:27;7.85;;;5.70;;
26822;SDS011;14852;51.910;8.878;2023-04-15T14:07:52;6.63;;;5.38;;
26822;SDS011;14852;51.910;8.878;2023-04-15T14:10:18;6.57;;;5.32;;
26822;SDS011;14852;51.910;8.878;2023-04-15T14:12:44;7.50;;;6.10;;
26822;SDS011;14852;51.910;8.878;2023-04-15T14:15:10;7.30;;;6.45;;
26822;SDS011;14852;51.910;8.878;2023-04-15T14:17:36;7.13;;;5.47;;
26822;SDS011;14852;51.910;8.878;2023-04-15T14:20:01;6.32;;;5.22;;
26822;SDS011;14852;51.910;8.878;2023-04-15T14:22:28;8.10;;;5.60;;
26822;SDS011;14852;51.910;8.878;2023-04-15T14:24:53;8.77;;;6.43;;
26822;SDS011;14852;51.910;8.878;2023-04-15T14:27:19;5.95;;;5.32;;
26822;SDS011;14852;51.910;8.878;2023-04-15T14:29:45;6.53;;;5.85;;
26822;SDS011;14852;51.910;8.878;2023-04-15T14:32:11;5.35;;;4.72;;
26822;SDS011;14852;51.910;8.878;2023-04-15T14:34:37;7.43;;;5.82;;
26822;SDS011;14852;51.910;8.878;2023-04-15T14:37:02;7.15;;;5.97;;
26822;SDS011;14852;51.910;8.878;2023-04-15T14:39:29;6.70;;;5.38;;
26822;SDS011;14852;51.910;8.878;2023-04-15T14:41:55;7.75;;;6.05;;
26822;SDS011;14852;51.910;8.878;2023-04-15T14:44:20;7.55;;;6.72;;
26822;SDS011;14852;51.910;8.878;2023-04-15T14:46:46;5.30;;;4.63;;
26822;SDS011;14852;51.910;8.878;2023-04-15T14:49:12;7.32;;;5.65;;
26822;SDS011;14852;51.910;8.878;2023-04-15T14:51:38;7.05;;;6.30;;
26822;SDS011;14852;51.910;8.878;2023-04-15T14:54:04;7.82;;;6.25;;
26822;SDS011;14852;51.910;8.878;2023-04-15T14:56:30;6.07;;;5.47;;
26822;SDS011;14852;51.910;8.878;2023-04-15T14:58:56;6.30;;;5.70;;
26822;SDS011;14852;51.910;8.878;2023-04-15T15:01:21;7.05;;;5.90;;
26822;SDS011;14852;51.910;8.878;2023-04-15T15:03:48;7.40;;;5.75;;
26822;SDS011;14852;51.910;8.878;2023-04-15T15:06:13;7.68;;;6.07;;
26822;SDS011;14852;51.910;8.878;2023-04-15T15:08:39;8.05;;;6.60;;